createdAt,value
2018-02-26T00:02:21.073Z,7.25
2018-02-26T00:04:49.844Z,7.32
2018-02-26T00:07:18.080Z,7.05
2018-02-26T00:09:46.604Z,7.50
2018-02-26T00:12:15.005Z,9.98
2018-02-26T00:14:43.229Z,8.85
2018-02-26T00:17:11.448Z,6.53
2018-02-26T00:19:41.556Z,7.68
2018-02-26T00:22:09.650Z,7.15
2018-02-26T00:24:37.882Z,6.85
2018-02-26T00:27:07.621Z,7.90
2018-02-26T00:29:37.360Z,7.60
2018-02-26T00:32:06.352Z,7.65
2018-02-26T00:34:34.631Z,8.65
2018-02-26T00:37:02.860Z,8.75
2018-02-26T00:39:32.220Z,8.45
2018-02-26T00:42:00.509Z,9.63
2018-02-26T00:44:30.240Z,9.20
2018-02-26T00:46:59.232Z,8.77
2018-02-26T00:49:29.417Z,9.57
2018-02-26T00:51:58.028Z,8.07
2018-02-26T00:54:27.080Z,9.50
2018-02-26T00:56:57.184Z,8.77
2018-02-26T00:59:26.550Z,11.77
2018-02-26T01:01:54.777Z,7.30
2018-02-26T01:04:23.152Z,11.43
2018-02-26T01:06:51.385Z,10.25
2018-02-26T01:09:19.616Z,10.57
2018-02-26T01:11:48.208Z,10.02
2018-02-26T01:14:17.940Z,9.70
2018-02-26T01:16:46.165Z,12.23
2018-02-26T01:19:16.108Z,13.02
2018-02-26T01:21:45.360Z,12.20
2018-02-26T01:24:13.584Z,9.77
2018-02-26T01:26:42.951Z,9.60
2018-02-26T01:29:12.363Z,10.82
2018-02-26T01:31:40.549Z,8.90
2018-02-26T01:34:09.808Z,9.85
2018-02-26T01:36:38.428Z,11.35
2018-02-26T01:39:06.660Z,12.10
2018-02-26T01:41:35.232Z,10.13
2018-02-26T01:44:03.459Z,10.57
2018-02-26T01:46:32.832Z,11.10
2018-02-26T01:49:01.464Z,10.60
2018-02-26T01:51:31.045Z,10.77
2018-02-26T01:53:59.144Z,10.05
2018-02-26T01:56:28.784Z,11.10
2018-02-26T01:58:57.412Z,11.63
2018-02-26T02:01:25.636Z,16.08
2018-02-26T02:03:55.211Z,11.27
2018-02-26T02:06:23.441Z,11.25
2018-02-26T02:08:53.017Z,13.13
2018-02-26T02:11:21.713Z,14.20
2018-02-26T02:13:50.327Z,12.63
2018-02-26T02:16:18.552Z,12.02
2018-02-26T02:18:48.764Z,12.15
2018-02-26T02:21:18.133Z,12.65
2018-02-26T02:23:46.356Z,14.50
2018-02-26T02:26:15.213Z,12.77
2018-02-26T02:28:44.577Z,12.15
2018-02-26T02:31:12.808Z,11.40
2018-02-26T02:33:41.447Z,13.80
2018-02-26T02:36:10.818Z,11.75
2018-02-26T02:38:39.041Z,10.68
2018-02-26T02:41:07.810Z,14.25
2018-02-26T02:43:36.024Z,10.95
2018-02-26T02:46:05.550Z,12.55
2018-02-26T02:48:33.992Z,13.50
2018-02-26T02:51:02.230Z,11.30
2018-02-26T02:53:31.800Z,11.63
2018-02-26T02:56:00.686Z,13.13
2018-02-26T02:58:30.896Z,12.48
2018-02-26T03:00:59.004Z,10.07
2018-02-26T03:03:28.885Z,11.65
2018-02-26T03:05:57.113Z,12.90
2018-02-26T03:08:25.347Z,12.25
2018-02-26T03:10:53.996Z,12.63
2018-02-26T03:13:23.356Z,13.73
2018-02-26T03:15:51.583Z,13.43
2018-02-26T03:18:20.820Z,16.45
2018-02-26T03:20:49.057Z,14.57
2018-02-26T03:23:18.797Z,14.15
2018-02-26T03:25:48.251Z,14.75
2018-02-26T03:28:16.476Z,11.95
2018-02-26T03:30:45.469Z,12.30
2018-02-26T03:33:14.024Z,13.48
2018-02-26T03:35:42.248Z,16.33
2018-02-26T03:38:11.839Z,12.73
2018-02-26T03:40:40.771Z,13.15
2018-02-26T03:43:09.765Z,13.75
2018-02-26T03:45:37.991Z,15.35
2018-02-26T03:48:07.842Z,16.87
2018-02-26T03:50:36.340Z,13.25
2018-02-26T03:53:04.569Z,17.12
2018-02-26T03:55:33.043Z,16.42
2018-02-26T03:58:02.408Z,14.20
2018-02-26T04:00:31.020Z,16.92
2018-02-26T04:03:00.327Z,18.05
2018-02-26T04:05:29.324Z,13.25
2018-02-26T04:07:59.061Z,13.07
2018-02-26T04:10:27.844Z,24.10
2018-02-26T04:12:56.067Z,11.55
2018-02-26T04:15:25.081Z,14.48
2018-02-26T04:17:54.412Z,14.13
2018-02-26T04:20:23.408Z,14.30
2018-02-26T04:22:52.996Z,12.68
2018-02-26T04:25:21.875Z,15.73
2018-02-26T04:27:50.868Z,11.57
2018-02-26T04:30:19.096Z,11.27
2018-02-26T04:32:48.144Z,10.85
2018-02-26T04:35:16.373Z,13.18
2018-02-26T04:37:44.600Z,14.65
2018-02-26T04:40:13.133Z,14.38
2018-02-26T04:42:42.732Z,12.63
2018-02-26T04:45:10.816Z,13.68
2018-02-26T04:47:40.052Z,12.18
2018-02-26T04:50:09.794Z,14.32
2018-02-26T04:52:38.017Z,10.80
2018-02-26T04:55:07.861Z,12.57
2018-02-26T04:57:37.223Z,13.00
2018-02-26T05:00:05.448Z,10.27
2018-02-26T05:02:37.547Z,13.62
2018-02-26T05:05:05.768Z,10.23
2018-02-26T05:07:34.757Z,10.88
2018-02-26T05:12:36.780Z,9.85
2018-02-26T05:15:04.996Z,10.93
2018-02-26T05:17:33.267Z,9.95
2018-02-26T05:20:02.312Z,11.23
2018-02-26T05:22:30.540Z,10.35
2018-02-26T05:24:58.761Z,11.57
2018-02-26T05:27:28.872Z,14.00
2018-02-26T05:29:57.092Z,13.10
2018-02-26T05:32:26.666Z,13.45
2018-02-26T05:34:55.015Z,13.57
2018-02-26T05:37:23.247Z,12.60
2018-02-26T05:39:52.986Z,14.00
2018-02-26T05:42:21.512Z,12.82
2018-02-26T05:44:49.736Z,16.05
2018-02-26T05:47:17.968Z,14.02
2018-02-26T05:49:48.015Z,18.50
2018-02-26T05:52:17.748Z,15.30
2018-02-26T05:54:47.326Z,16.52
2018-02-26T05:57:15.901Z,16.67
2018-02-26T05:59:44.137Z,15.77
2018-02-26T06:02:12.372Z,18.55
2018-02-26T06:04:41.205Z,13.05
2018-02-26T06:07:10.200Z,16.62
2018-02-26T06:09:38.432Z,15.40
2018-02-26T06:12:08.536Z,15.30
2018-02-26T06:14:37.168Z,17.70
2018-02-26T06:17:05.408Z,16.00
2018-02-26T06:19:34.952Z,18.02
2018-02-26T06:22:03.187Z,19.15
2018-02-26T06:24:31.425Z,16.85
2018-02-26T06:26:59.913Z,15.90
2018-02-26T06:29:29.284Z,18.90
2018-02-26T06:31:57.517Z,18.55
2018-02-26T06:34:25.905Z,14.05
2018-02-26T06:36:54.140Z,15.50
2018-02-26T06:39:23.628Z,15.30
2018-02-26T06:41:53.384Z,19.55
2018-02-26T06:44:23.129Z,18.20
2018-02-26T06:46:51.356Z,16.33
2018-02-26T06:49:20.144Z,18.70
2018-02-26T06:51:48.384Z,20.02
2018-02-26T06:54:16.614Z,17.85
2018-02-26T06:56:45.020Z,20.23
2018-02-26T06:59:13.248Z,16.95
2018-02-26T07:01:41.486Z,16.58
2018-02-26T07:04:11.116Z,20.15
2018-02-26T07:06:41.509Z,16.00
2018-02-26T07:09:11.250Z,15.15
2018-02-26T07:11:39.369Z,17.58
2018-02-26T07:14:07.599Z,15.05
2018-02-26T07:16:37.848Z,15.15
2018-02-26T07:19:07.592Z,15.00
2018-02-26T07:21:35.823Z,15.35
2018-02-26T07:24:04.288Z,15.15
2018-02-26T07:26:34.024Z,13.70
2018-02-26T07:29:03.024Z,20.37
2018-02-26T07:31:31.452Z,12.75
2018-02-26T07:34:00.824Z,15.20
2018-02-26T07:36:29.056Z,15.30
2018-02-26T07:38:58.084Z,18.40
2018-02-26T07:41:27.081Z,22.25
2018-02-26T07:43:55.307Z,14.15
2018-02-26T07:46:25.077Z,15.57
2018-02-26T07:48:53.302Z,16.92
2018-02-26T07:51:21.539Z,18.08
2018-02-26T07:53:50.368Z,18.98
2018-02-26T07:56:18.992Z,17.65
2018-02-26T07:58:47.219Z,20.27
2018-02-26T08:01:16.420Z,17.65
2018-02-26T08:03:44.651Z,20.02
2018-02-26T08:06:12.876Z,19.35
2018-02-26T08:08:43.413Z,18.95
2018-02-26T08:11:13.699Z,20.05
2018-02-26T08:13:42.196Z,22.17
2018-02-26T08:16:11.535Z,20.02
2018-02-26T08:18:40.160Z,15.48
2018-02-26T08:21:08.392Z,14.70
2018-02-26T08:23:37.473Z,13.32
2018-02-26T08:26:06.492Z,13.55
2018-02-26T08:28:35.479Z,13.27
2018-02-26T08:31:04.323Z,12.70
2018-02-26T08:33:32.948Z,12.48
2018-02-26T08:36:01.187Z,11.70
2018-02-26T08:38:30.535Z,16.52
2018-02-26T08:40:59.152Z,10.90
2018-02-26T08:43:27.376Z,10.40
2018-02-26T08:45:57.676Z,10.73
2018-02-26T08:48:25.909Z,11.20
2018-02-26T08:50:55.646Z,9.73
2018-02-26T08:53:24.880Z,10.45
2018-02-26T08:55:53.872Z,10.98
2018-02-26T08:58:23.460Z,11.60
2018-02-26T09:00:53.064Z,11.20
2018-02-26T09:03:22.053Z,8.50
2018-02-26T09:05:50.272Z,9.90
2018-02-26T09:08:18.584Z,8.65
2018-02-26T09:10:53.496Z,7.82
2018-02-26T09:13:22.791Z,8.52
2018-02-26T09:15:51.008Z,8.85
2018-02-26T09:18:19.232Z,7.87
2018-02-26T09:20:49.417Z,8.63
2018-02-26T09:23:19.152Z,7.95
2018-02-26T09:25:48.147Z,11.10
2018-02-26T09:28:19.948Z,14.40
2018-02-26T09:30:49.304Z,9.23
2018-02-26T09:33:17.920Z,7.60
2018-02-26T09:35:48.040Z,8.63
2018-02-26T09:38:17.764Z,6.40
2018-02-26T09:40:47.351Z,7.27
2018-02-26T09:43:16.145Z,7.13
2018-02-26T09:45:44.759Z,7.07
2018-02-26T09:48:12.976Z,14.23
2018-02-26T09:53:21.838Z,7.20
2018-02-26T09:55:50.453Z,8.30
2018-02-26T09:58:18.664Z,7.07
2018-02-26T10:00:48.649Z,8.73
2018-02-26T10:03:17.836Z,10.43
2018-02-26T10:05:46.064Z,5.65
2018-02-26T10:08:15.836Z,5.57
2018-02-26T10:10:45.196Z,8.43
2018-02-26T10:15:51.764Z,5.72
2018-02-26T10:18:19.988Z,6.55
2018-02-26T10:20:48.509Z,6.03
2018-02-26T10:23:18.087Z,8.95
2018-02-26T10:25:46.250Z,6.05
2018-02-26T10:28:15.830Z,5.07
2018-02-26T10:30:44.056Z,5.57
2018-02-26T10:33:12.281Z,9.40
2018-02-26T10:35:41.632Z,4.10
2018-02-26T10:38:10.620Z,5.70
2018-02-26T10:40:39.612Z,8.33
2018-02-26T10:43:08.765Z,7.77
2018-02-26T10:45:37.756Z,4.73
2018-02-26T10:48:05.980Z,4.93
2018-02-26T10:50:35.200Z,7.10
2018-02-26T10:53:04.189Z,6.80
2018-02-26T10:55:33.172Z,5.70
2018-02-26T10:58:03.452Z,5.23
2018-02-26T11:00:32.441Z,5.40
2018-02-26T11:03:00.670Z,5.20
2018-02-26T11:05:30.136Z,6.03
2018-02-26T11:07:59.496Z,7.03
2018-02-26T11:10:27.724Z,3.27
2018-02-26T11:12:56.108Z,3.93
2018-02-26T11:15:24.712Z,6.80
2018-02-26T11:17:52.937Z,4.00
2018-02-26T11:22:56.321Z,3.67
2018-02-26T11:25:24.545Z,5.40
2018-02-26T11:27:53.557Z,4.40
2018-02-26T11:30:22.540Z,4.30
2018-02-26T11:32:50.763Z,6.93
2018-02-26T11:35:19.596Z,4.40
2018-02-26T11:37:48.963Z,3.10
2018-02-26T11:40:17.184Z,4.13
2018-02-26T11:42:45.737Z,4.40
2018-02-26T11:45:15.316Z,5.10
2018-02-26T11:47:43.420Z,9.03
2018-02-26T11:50:13.516Z,3.70
2018-02-26T11:52:42.380Z,8.73
2018-02-26T11:55:10.604Z,4.57
2018-02-26T11:57:39.068Z,4.77
2018-02-26T12:00:08.035Z,3.60
2018-02-26T12:05:36.624Z,3.80
2018-02-26T12:08:04.853Z,3.97
2018-02-26T12:10:33.845Z,3.37
2018-02-26T12:13:03.353Z,3.07
2018-02-26T12:15:33.232Z,4.43
2018-02-26T12:18:01.444Z,4.83
2018-02-26T12:20:29.879Z,3.77
2018-02-26T12:22:58.050Z,6.27
2018-02-26T12:25:27.408Z,7.23
2018-02-26T12:27:56.869Z,6.00
2018-02-26T12:30:25.480Z,5.97
2018-02-26T12:32:54.092Z,4.23
2018-02-26T12:35:23.417Z,4.80
2018-02-26T12:37:52.408Z,3.90
2018-02-26T12:40:22.465Z,4.47
2018-02-26T12:42:52.209Z,3.50
2018-02-26T12:45:20.440Z,5.43
2018-02-26T12:50:22.900Z,6.83
2018-02-26T12:52:51.120Z,5.57
2018-02-26T12:55:19.341Z,4.50
2018-02-26T12:57:49.284Z,8.50
2018-02-26T13:00:18.863Z,5.07
2018-02-26T13:02:48.104Z,6.20
2018-02-26T13:05:18.641Z,4.30
2018-02-26T13:07:48.001Z,7.37
2018-02-26T13:10:16.233Z,5.90
2018-02-26T13:12:45.544Z,4.30
2018-02-26T13:15:14.532Z,2.87
2018-02-26T13:17:44.470Z,3.80
2018-02-26T13:20:12.912Z,3.47
2018-02-26T13:25:42.711Z,2.97
2018-02-26T13:28:12.438Z,2.73
2018-02-26T13:30:42.188Z,3.30
2018-02-26T13:33:12.625Z,5.13
2018-02-26T13:35:42.196Z,3.00
2018-02-26T13:38:10.300Z,3.57
2018-02-26T13:40:38.765Z,3.60
2018-02-26T13:43:07.394Z,4.03
2018-02-26T13:45:35.619Z,6.33
2018-02-26T13:48:04.072Z,6.43
2018-02-26T13:50:33.437Z,3.40
2018-02-26T13:53:01.660Z,2.97
2018-02-26T13:55:30.109Z,3.13
2018-02-26T13:57:59.469Z,3.90
2018-02-26T14:00:28.461Z,3.10
2018-02-26T14:02:57.989Z,2.87
2018-02-26T14:05:27.721Z,4.90
2018-02-26T14:07:57.288Z,3.97
2018-02-26T14:10:26.173Z,3.67
2018-02-26T14:12:55.160Z,4.40
2018-02-26T14:15:24.153Z,4.00
2018-02-26T14:17:53.440Z,4.70
2018-02-26T14:20:22.432Z,5.77
2018-02-26T14:22:50.644Z,4.63
2018-02-26T14:25:19.675Z,5.33
2018-02-26T14:27:48.660Z,4.80
2018-02-26T14:30:17.280Z,4.67
2018-02-26T14:32:45.812Z,5.00
2018-02-26T14:35:15.387Z,4.23
2018-02-26T14:37:43.484Z,5.17
2018-02-26T14:40:13.299Z,4.53
2018-02-26T14:42:42.761Z,5.75
2018-02-26T14:45:12.232Z,5.35
2018-02-26T14:47:41.992Z,5.60
2018-02-26T14:50:10.867Z,4.25
2018-02-26T14:52:39.860Z,4.75
2018-02-26T14:55:08.318Z,4.25
2018-02-26T14:57:38.044Z,3.92
2018-02-26T15:00:07.627Z,3.85
2018-02-26T15:02:37.217Z,3.25
2018-02-26T15:05:06.801Z,3.28
2018-02-26T15:07:34.900Z,4.78
2018-02-26T15:10:03.287Z,3.70
2018-02-26T15:12:32.869Z,3.92
2018-02-26T15:15:02.334Z,3.60
2018-02-26T15:17:33.204Z,4.95
2018-02-26T15:20:03.282Z,4.03
2018-02-26T15:22:32.269Z,5.37
2018-02-26T15:25:02.320Z,2.75
2018-02-26T15:27:30.424Z,3.17
2018-02-26T15:29:59.413Z,3.22
2018-02-26T15:32:27.937Z,3.40
2018-02-26T15:34:57.520Z,2.90
2018-02-26T15:37:25.621Z,6.85
2018-02-26T15:39:55.725Z,3.17
2018-02-26T15:42:23.945Z,3.05
2018-02-26T15:44:52.162Z,4.32
2018-02-26T15:47:21.209Z,3.58
2018-02-26T15:49:50.936Z,2.62
2018-02-26T15:52:19.159Z,2.50
2018-02-26T15:54:47.797Z,2.65
2018-02-26T15:57:17.371Z,2.40
2018-02-26T15:59:45.469Z,2.67
2018-02-26T16:02:15.300Z,4.95
2018-02-26T16:04:43.528Z,4.07
2018-02-26T16:07:11.740Z,2.10
2018-02-26T16:09:41.384Z,3.00
2018-02-26T16:12:10.376Z,3.45
2018-02-26T16:14:38.588Z,2.97
2018-02-26T16:17:07.829Z,2.62
2018-02-26T16:19:37.555Z,3.20
2018-02-26T16:22:07.467Z,2.75
2018-02-26T16:24:37.144Z,3.20
2018-02-26T16:27:06.009Z,3.00
2018-02-26T16:29:34.993Z,3.08
2018-02-26T16:32:04.416Z,3.58
2018-02-26T16:34:32.638Z,7.03
2018-02-26T16:37:00.953Z,7.50
2018-02-26T16:39:29.503Z,4.40
2018-02-26T16:41:59.077Z,4.60
2018-02-26T16:44:27.176Z,3.30
2018-02-26T16:46:58.621Z,3.70
2018-02-26T16:49:27.228Z,4.50
2018-02-26T16:51:56.207Z,3.35
2018-02-26T16:56:58.637Z,3.47
2018-02-26T16:59:27.313Z,3.42
2018-02-26T17:01:56.797Z,2.80
2018-02-26T17:04:26.380Z,12.23
2018-02-26T17:06:55.613Z,3.00
2018-02-26T17:09:24.732Z,5.55
2018-02-26T17:11:52.949Z,4.10
2018-02-26T17:14:22.524Z,3.35
2018-02-26T17:16:51.141Z,5.22
2018-02-26T17:19:20.492Z,3.72
2018-02-26T17:21:48.727Z,3.83
2018-02-26T17:24:18.833Z,3.50
2018-02-26T17:26:47.048Z,4.43
2018-02-26T17:29:16.619Z,4.25
2018-02-26T17:31:45.982Z,7.45
2018-02-26T17:34:14.993Z,4.80
2018-02-26T17:36:43.976Z,4.37
2018-02-26T17:39:12.609Z,4.20
2018-02-26T17:41:41.264Z,4.03
2018-02-26T17:44:09.476Z,3.42
2018-02-26T17:46:39.455Z,4.07
2018-02-26T17:49:07.788Z,3.90
2018-02-26T17:51:36.031Z,4.50
2018-02-26T17:54:04.828Z,6.82
2018-02-26T17:56:33.029Z,4.85
2018-02-26T17:59:02.381Z,6.05
2018-02-26T18:01:31.549Z,6.18
2018-02-26T18:04:00.203Z,5.20
2018-02-26T18:06:29.249Z,6.60
2018-02-26T18:08:58.113Z,10.32
2018-02-26T18:11:27.092Z,5.55
2018-02-26T18:13:55.718Z,6.35
2018-02-26T18:16:24.764Z,5.62
2018-02-26T18:18:52.990Z,5.72
2018-02-26T18:21:21.204Z,5.37
2018-02-26T18:23:50.768Z,5.78
2018-02-26T18:26:20.124Z,10.35
2018-02-26T18:28:48.340Z,5.60
2018-02-26T19:00:53.620Z,6.00
2018-02-26T19:03:21.845Z,5.32
2018-02-26T19:05:50.069Z,7.12
2018-02-26T19:08:20.125Z,8.15
2018-02-26T19:10:49.445Z,7.40
2018-02-26T19:13:18.424Z,8.52
2018-02-26T19:15:48.496Z,10.00
2018-02-26T19:18:17.588Z,7.72
2018-02-26T19:20:45.800Z,10.63
2018-02-26T19:23:14.627Z,8.93
2018-02-26T19:25:44.520Z,8.80
2018-02-26T19:28:12.877Z,6.25
2018-02-26T19:33:15.689Z,6.12
2018-02-26T19:35:45.942Z,9.35
2018-02-26T19:38:14.449Z,11.95
2018-02-26T19:40:45.808Z,11.25
2018-02-26T19:43:14.788Z,8.57
2018-02-26T19:45:43.078Z,6.40
2018-02-26T19:48:13.035Z,6.75
2018-02-26T19:50:42.613Z,7.50
2018-02-26T19:53:12.036Z,12.52
2018-02-26T19:55:40.945Z,7.25
2018-02-26T19:58:09.212Z,7.03
2018-02-26T20:00:37.455Z,6.80
2018-02-26T20:03:05.820Z,7.68
2018-02-26T20:05:34.045Z,9.05
2018-02-26T20:08:02.656Z,7.97
2018-02-26T20:10:31.624Z,7.37
2018-02-26T20:13:00.609Z,6.93
2018-02-26T20:15:28.906Z,9.52
2018-02-26T20:17:57.729Z,6.60
2018-02-26T20:20:26.348Z,7.72
2018-02-26T20:22:54.564Z,6.32
2018-02-26T20:25:24.215Z,8.63
2018-02-26T20:27:53.671Z,6.75
2018-02-26T20:30:23.332Z,6.87
2018-02-26T20:32:52.120Z,6.50
2018-02-26T20:35:21.101Z,6.75
2018-02-26T20:37:50.452Z,9.77
2018-02-26T20:40:20.472Z,6.20
2018-02-26T20:42:49.828Z,6.85
2018-02-26T20:45:18.177Z,7.60
2018-02-26T20:47:48.253Z,8.02
2018-02-26T20:50:17.834Z,7.95
2018-02-26T20:52:47.288Z,6.97
2018-02-26T20:55:16.125Z,7.75
2018-02-26T20:57:44.740Z,6.40
2018-02-26T21:00:12.960Z,8.65
2018-02-26T21:02:42.572Z,8.43
2018-02-26T21:05:11.200Z,6.00
2018-02-26T21:07:39.416Z,9.55
2018-02-26T21:10:09.312Z,8.43
2018-02-26T21:12:38.667Z,7.68
2018-02-26T21:15:07.289Z,8.02
2018-02-26T21:17:35.652Z,9.05
2018-02-26T21:20:05.004Z,8.07
2018-02-26T21:22:33.221Z,6.00
2018-02-26T21:25:03.140Z,7.45
2018-02-26T21:27:32.374Z,5.75
2018-02-26T21:30:00.594Z,5.87
2018-02-26T21:32:30.280Z,6.07
2018-02-26T21:34:59.640Z,7.25
2018-02-26T21:37:27.851Z,5.55
2018-02-26T21:42:30.233Z,6.20
2018-02-26T21:44:58.452Z,8.30
2018-02-26T21:47:27.444Z,7.03
2018-02-26T21:49:57.109Z,7.12
2018-02-26T21:52:26.459Z,6.90
2018-02-26T21:54:54.676Z,7.62
2018-02-26T21:57:23.268Z,7.93
2018-02-26T21:59:51.479Z,9.02
2018-02-26T22:02:19.696Z,7.20
2018-02-26T22:04:48.052Z,8.75
2018-02-26T22:07:17.400Z,7.53
2018-02-26T22:09:45.624Z,7.87
2018-02-26T22:12:14.026Z,5.82
2018-02-26T22:14:42.236Z,8.27
2018-02-26T22:17:11.816Z,10.85
2018-02-26T22:19:40.309Z,6.50
2018-02-26T22:22:09.661Z,7.80
2018-02-26T22:24:37.875Z,9.77
2018-02-26T22:27:11.915Z,6.70
2018-02-26T22:29:36.193Z,7.43
2018-02-26T22:32:05.179Z,8.27
2018-02-26T22:34:34.736Z,8.65
2018-02-26T22:37:03.729Z,6.22
2018-02-26T22:39:33.456Z,5.57
2018-02-26T22:42:02.045Z,6.00
2018-02-26T22:44:31.404Z,6.57
2018-02-26T22:46:59.672Z,7.12
2018-02-26T22:49:29.093Z,5.75
2018-02-26T22:51:57.316Z,6.95
2018-02-26T22:54:25.543Z,7.80
2018-02-26T22:56:54.078Z,5.65
2018-02-26T22:59:23.648Z,7.03
2018-02-26T23:01:52.145Z,6.55
2018-02-26T23:04:20.613Z,7.47
2018-02-26T23:06:49.596Z,6.85
2018-02-26T23:09:17.829Z,10.55
2018-02-26T23:11:48.195Z,7.15
2018-02-26T23:14:17.070Z,10.48
2018-02-26T23:16:45.296Z,10.65
2018-02-26T23:19:14.445Z,14.63
2018-02-26T23:21:42.668Z,7.80
2018-02-26T23:24:10.895Z,9.07
2018-02-26T23:26:39.633Z,8.73
2018-02-26T23:29:08.995Z,10.48
2018-02-26T23:31:37.225Z,8.93
2018-02-26T23:36:43.841Z,12.07
2018-02-26T23:39:12.092Z,7.03
2018-02-26T23:41:40.321Z,8.00
2018-02-26T23:44:09.863Z,7.37
2018-02-26T23:46:38.110Z,7.18
2018-02-26T23:49:06.341Z,6.45
2018-02-26T23:54:22.261Z,8.70
2018-02-26T23:56:50.488Z,7.47
2018-02-26T23:59:20.223Z,11.65
